sensor_id;sensor_type;location;lat;lon;timestamp;P1;durP1;ratioP1;P2;durP2;ratioP2
53203;SDS011;39086;54.424;18.456;2023-06-22T00:00:42;7.73;;;6.40;;
53203;SDS011;39086;54.424;18.456;2023-06-22T00:01:46;8.17;;;7.37;;
53203;SDS011;39086;54.424;18.456;2023-06-22T00:02:49;7.10;;;6.43;;
53203;SDS011;39086;54.424;18.456;2023-06-22T00:03:53;7.67;;;6.50;;
53203;SDS011;39086;54.424;18.456;2023-06-22T00:04:56;7.13;;;6.27;;
53203;SDS011;39086;54.424;18.456;2023-06-22T00:05:59;7.60;;;6.53;;
53203;SDS011;39086;54.424;18.456;2023-06-22T00:07:02;9.37;;;6.50;;
53203;SDS011;39086;54.424;18.456;2023-06-22T00:08:04;7.70;;;6.73;;
53203;SDS011;39086;54.424;18.456;2023-06-22T00:09:08;7.13;;;6.43;;
53203;SDS011;39086;54.424;18.456;2023-06-22T00:10:11;7.53;;;6.37;;
53203;SDS011;39086;54.424;18.456;2023-06-22T00:11:15;8.20;;;6.77;;
53203;SDS011;39086;54.424;18.456;2023-06-22T00:12:17;7.80;;;7.00;;
53203;SDS011;39086;54.424;18.456;2023-06-22T00:13:21;6.90;;;6.20;;
53203;SDS011;39086;54.424;18.456;2023-06-22T00:14:23;7.20;;;6.53;;
53203;SDS011;39086;54.424;18.456;2023-06-22T00:15:27;9.03;;;6.63;;
53203;SDS011;39086;54.424;18.456;2023-06-22T00:16:30;9.30;;;7.17;;
53203;SDS011;39086;54.424;18.456;2023-06-22T00:17:33;6.67;;;6.07;;
53203;SDS011;39086;54.424;18.456;2023-06-22T00:18:36;10.53;;;6.97;;
53203;SDS011;39086;54.424;18.456;2023-06-22T00:19:40;8.30;;;6.87;;
53203;SDS011;39086;54.424;18.456;2023-06-22T00:20:43;10.87;;;6.70;;
53203;SDS011;39086;54.424;18.456;2023-06-22T00:21:47;8.20;;;6.77;;
53203;SDS011;39086;54.424;18.456;2023-06-22T00:22:54;8.00;;;7.20;;
53203;SDS011;39086;54.424;18.456;2023-06-22T00:23:57;8.03;;;6.60;;
53203;SDS011;39086;54.424;18.456;2023-06-22T00:24:59;8.93;;;7.13;;
53203;SDS011;39086;54.424;18.456;2023-06-22T00:26:03;8.20;;;7.17;;
53203;SDS011;39086;54.424;18.456;2023-06-22T00:27:05;8.20;;;6.60;;
53203;SDS011;39086;54.424;18.456;2023-06-22T00:28:09;8.23;;;6.87;;
53203;SDS011;39086;54.424;18.456;2023-06-22T00:29:11;7.93;;;7.10;;
53203;SDS011;39086;54.424;18.456;2023-06-22T00:30:15;8.50;;;7.13;;
53203;SDS011;39086;54.424;18.456;2023-06-22T00:31:17;8.20;;;6.63;;
53203;SDS011;39086;54.424;18.456;2023-06-22T00:32:20;9.77;;;6.90;;
53203;SDS011;39086;54.424;18.456;2023-06-22T00:33:23;8.60;;;6.90;;
53203;SDS011;39086;54.424;18.456;2023-06-22T00:34:26;8.30;;;6.53;;
53203;SDS011;39086;54.424;18.456;2023-06-22T00:35:30;7.60;;;6.80;;
53203;SDS011;39086;54.424;18.456;2023-06-22T00:36:33;7.80;;;7.00;;
53203;SDS011;39086;54.424;18.456;2023-06-22T00:37:36;6.83;;;6.13;;
53203;SDS011;39086;54.424;18.456;2023-06-22T00:38:39;10.33;;;7.20;;
53203;SDS011;39086;54.424;18.456;2023-06-22T00:39:42;9.57;;;6.93;;
53203;SDS011;39086;54.424;18.456;2023-06-22T00:40:45;8.40;;;6.60;;
53203;SDS011;39086;54.424;18.456;2023-06-22T00:41:48;6.93;;;6.30;;
53203;SDS011;39086;54.424;18.456;2023-06-22T00:42:51;7.80;;;6.93;;
53203;SDS011;39086;54.424;18.456;2023-06-22T00:43:54;8.93;;;6.90;;
53203;SDS011;39086;54.424;18.456;2023-06-22T00:44:57;8.77;;;7.03;;
53203;SDS011;39086;54.424;18.456;2023-06-22T00:45:59;9.83;;;6.73;;
53203;SDS011;39086;54.424;18.456;2023-06-22T00:47:03;8.27;;;6.50;;
53203;SDS011;39086;54.424;18.456;2023-06-22T00:48:06;6.47;;;5.87;;
53203;SDS011;39086;54.424;18.456;2023-06-22T00:49:11;9.80;;;7.07;;
53203;SDS011;39086;54.424;18.456;2023-06-22T00:50:14;7.77;;;6.67;;
53203;SDS011;39086;54.424;18.456;2023-06-22T00:51:23;7.20;;;6.50;;
53203;SDS011;39086;54.424;18.456;2023-06-22T00:52:25;10.40;;;6.10;;
53203;SDS011;39086;54.424;18.456;2023-06-22T00:53:32;10.63;;;7.10;;
53203;SDS011;39086;54.424;18.456;2023-06-22T00:54:36;7.00;;;6.40;;
53203;SDS011;39086;54.424;18.456;2023-06-22T00:55:41;7.50;;;6.53;;
53203;SDS011;39086;54.424;18.456;2023-06-22T00:56:45;7.53;;;6.57;;
53203;SDS011;39086;54.424;18.456;2023-06-22T00:57:48;7.23;;;6.50;;
53203;SDS011;39086;54.424;18.456;2023-06-22T00:58:51;7.37;;;6.63;;
53203;SDS011;39086;54.424;18.456;2023-06-22T00:59:54;9.37;;;6.73;;
53203;SDS011;39086;54.424;18.456;2023-06-22T01:00:57;7.13;;;6.33;;
53203;SDS011;39086;54.424;18.456;2023-06-22T01:02:01;6.77;;;5.90;;
53203;SDS011;39086;54.424;18.456;2023-06-22T01:03:05;8.13;;;6.60;;
53203;SDS011;39086;54.424;18.456;2023-06-22T01:04:10;7.83;;;6.37;;
53203;SDS011;39086;54.424;18.456;2023-06-22T01:05:14;8.57;;;6.37;;
53203;SDS011;39086;54.424;18.456;2023-06-22T01:06:19;6.27;;;5.77;;
53203;SDS011;39086;54.424;18.456;2023-06-22T01:07:30;8.07;;;6.40;;
53203;SDS011;39086;54.424;18.456;2023-06-22T01:08:35;8.07;;;6.37;;
53203;SDS011;39086;54.424;18.456;2023-06-22T01:09:44;7.87;;;6.57;;
53203;SDS011;39086;54.424;18.456;2023-06-22T01:10:50;7.67;;;6.57;;
53203;SDS011;39086;54.424;18.456;2023-06-22T01:11:54;9.90;;;6.23;;
53203;SDS011;39086;54.424;18.456;2023-06-22T01:13:00;7.37;;;6.67;;
53203;SDS011;39086;54.424;18.456;2023-06-22T01:14:06;8.53;;;6.83;;
53203;SDS011;39086;54.424;18.456;2023-06-22T01:15:10;7.70;;;6.20;;
53203;SDS011;39086;54.424;18.456;2023-06-22T01:16:15;7.13;;;6.23;;
53203;SDS011;39086;54.424;18.456;2023-06-22T01:17:20;7.87;;;6.60;;
53203;SDS011;39086;54.424;18.456;2023-06-22T01:18:22;7.20;;;6.50;;
53203;SDS011;39086;54.424;18.456;2023-06-22T01:19:35;9.27;;;6.53;;
53203;SDS011;39086;54.424;18.456;2023-06-22T01:20:39;7.10;;;6.33;;
53203;SDS011;39086;54.424;18.456;2023-06-22T01:21:43;9.40;;;6.13;;
53203;SDS011;39086;54.424;18.456;2023-06-22T01:22:55;7.10;;;6.40;;
53203;SDS011;39086;54.424;18.456;2023-06-22T01:24:02;7.30;;;6.60;;
53203;SDS011;39086;54.424;18.456;2023-06-22T01:25:09;8.63;;;6.60;;
53203;SDS011;39086;54.424;18.456;2023-06-22T01:26:16;8.17;;;6.50;;
53203;SDS011;39086;54.424;18.456;2023-06-22T01:27:23;7.60;;;6.83;;
53203;SDS011;39086;54.424;18.456;2023-06-22T01:28:37;7.50;;;6.10;;
53203;SDS011;39086;54.424;18.456;2023-06-22T01:29:40;7.70;;;6.87;;
53203;SDS011;39086;54.424;18.456;2023-06-22T01:30:45;7.37;;;6.10;;
53203;SDS011;39086;54.424;18.456;2023-06-22T01:31:48;7.70;;;6.80;;
53203;SDS011;39086;54.424;18.456;2023-06-22T01:32:53;9.47;;;6.73;;
53203;SDS011;39086;54.424;18.456;2023-06-22T01:33:57;10.67;;;6.33;;
53203;SDS011;39086;54.424;18.456;2023-06-22T01:35:01;7.63;;;6.80;;
53203;SDS011;39086;54.424;18.456;2023-06-22T01:36:05;10.17;;;7.00;;
53203;SDS011;39086;54.424;18.456;2023-06-22T01:37:09;9.93;;;6.77;;
53203;SDS011;39086;54.424;18.456;2023-06-22T01:38:12;11.07;;;7.30;;
53203;SDS011;39086;54.424;18.456;2023-06-22T01:39:16;8.20;;;7.00;;
53203;SDS011;39086;54.424;18.456;2023-06-22T01:40:18;7.50;;;6.63;;
53203;SDS011;39086;54.424;18.456;2023-06-22T01:41:24;7.37;;;6.60;;
53203;SDS011;39086;54.424;18.456;2023-06-22T01:42:26;7.90;;;6.63;;
53203;SDS011;39086;54.424;18.456;2023-06-22T01:43:30;7.80;;;6.80;;
53203;SDS011;39086;54.424;18.456;2023-06-22T01:44:34;7.77;;;6.80;;
53203;SDS011;39086;54.424;18.456;2023-06-22T01:45:37;7.97;;;6.93;;
53203;SDS011;39086;54.424;18.456;2023-06-22T01:46:40;7.63;;;6.83;;
53203;SDS011;39086;54.424;18.456;2023-06-22T01:47:43;9.83;;;6.63;;
53203;SDS011;39086;54.424;18.456;2023-06-22T01:48:46;8.13;;;7.00;;
53203;SDS011;39086;54.424;18.456;2023-06-22T01:49:50;14.97;;;7.30;;
53203;SDS011;39086;54.424;18.456;2023-06-22T01:50:53;9.60;;;6.93;;
53203;SDS011;39086;54.424;18.456;2023-06-22T01:51:56;9.33;;;7.13;;
53203;SDS011;39086;54.424;18.456;2023-06-22T01:52:59;8.90;;;7.47;;
53203;SDS011;39086;54.424;18.456;2023-06-22T01:54:02;12.53;;;7.40;;
53203;SDS011;39086;54.424;18.456;2023-06-22T01:55:05;8.60;;;7.30;;
53203;SDS011;39086;54.424;18.456;2023-06-22T01:56:09;12.33;;;7.37;;
53203;SDS011;39086;54.424;18.456;2023-06-22T01:57:12;10.27;;;7.23;;
53203;SDS011;39086;54.424;18.456;2023-06-22T01:58:15;9.33;;;7.30;;
53203;SDS011;39086;54.424;18.456;2023-06-22T01:59:20;11.70;;;7.67;;
53203;SDS011;39086;54.424;18.456;2023-06-22T02:00:28;13.30;;;7.53;;
53203;SDS011;39086;54.424;18.456;2023-06-22T02:01:35;8.97;;;7.20;;
53203;SDS011;39086;54.424;18.456;2023-06-22T02:02:41;11.07;;;8.00;;
53203;SDS011;39086;54.424;18.456;2023-06-22T02:03:50;13.13;;;7.43;;
53203;SDS011;39086;54.424;18.456;2023-06-22T02:04:57;15.87;;;8.13;;
53203;SDS011;39086;54.424;18.456;2023-06-22T02:06:01;13.53;;;8.70;;
53203;SDS011;39086;54.424;18.456;2023-06-22T02:07:08;11.53;;;8.00;;
53203;SDS011;39086;54.424;18.456;2023-06-22T02:08:13;9.90;;;7.90;;
53203;SDS011;39086;54.424;18.456;2023-06-22T02:09:19;9.57;;;7.43;;
53203;SDS011;39086;54.424;18.456;2023-06-22T02:10:23;11.37;;;8.30;;
53203;SDS011;39086;54.424;18.456;2023-06-22T02:11:27;9.93;;;8.13;;
53203;SDS011;39086;54.424;18.456;2023-06-22T02:12:31;10.80;;;7.93;;
53203;SDS011;39086;54.424;18.456;2023-06-22T02:13:35;11.03;;;8.57;;
53203;SDS011;39086;54.424;18.456;2023-06-22T02:14:38;11.57;;;8.27;;
53203;SDS011;39086;54.424;18.456;2023-06-22T02:15:43;10.23;;;8.03;;
53203;SDS011;39086;54.424;18.456;2023-06-22T02:16:46;15.63;;;9.20;;
53203;SDS011;39086;54.424;18.456;2023-06-22T02:17:50;10.53;;;8.93;;
53203;SDS011;39086;54.424;18.456;2023-06-22T02:18:53;9.50;;;8.50;;
53203;SDS011;39086;54.424;18.456;2023-06-22T02:19:56;9.67;;;8.33;;
53203;SDS011;39086;54.424;18.456;2023-06-22T02:20:59;11.47;;;8.97;;
53203;SDS011;39086;54.424;18.456;2023-06-22T02:22:02;13.60;;;9.17;;
53203;SDS011;39086;54.424;18.456;2023-06-22T02:23:05;11.93;;;8.93;;
53203;SDS011;39086;54.424;18.456;2023-06-22T02:24:08;10.50;;;8.73;;
53203;SDS011;39086;54.424;18.456;2023-06-22T02:25:11;9.37;;;8.40;;
53203;SDS011;39086;54.424;18.456;2023-06-22T02:26:15;12.57;;;8.73;;
53203;SDS011;39086;54.424;18.456;2023-06-22T02:27:18;12.87;;;9.43;;
53203;SDS011;39086;54.424;18.456;2023-06-22T02:28:21;14.43;;;9.40;;
53203;SDS011;39086;54.424;18.456;2023-06-22T02:29:24;14.33;;;9.80;;
53203;SDS011;39086;54.424;18.456;2023-06-22T02:30:28;12.37;;;9.83;;
53203;SDS011;39086;54.424;18.456;2023-06-22T02:31:33;13.20;;;10.03;;
53203;SDS011;39086;54.424;18.456;2023-06-22T02:32:35;14.53;;;9.77;;
53203;SDS011;39086;54.424;18.456;2023-06-22T02:33:39;18.47;;;10.60;;
53203;SDS011;39086;54.424;18.456;2023-06-22T02:34:42;14.33;;;10.73;;
53203;SDS011;39086;54.424;18.456;2023-06-22T02:35:48;13.83;;;10.17;;
53203;SDS011;39086;54.424;18.456;2023-06-22T02:36:52;17.17;;;11.00;;
53203;SDS011;39086;54.424;18.456;2023-06-22T02:37:54;14.07;;;10.00;;
53203;SDS011;39086;54.424;18.456;2023-06-22T02:38:58;15.30;;;10.47;;
53203;SDS011;39086;54.424;18.456;2023-06-22T02:40:03;14.00;;;10.43;;
53203;SDS011;39086;54.424;18.456;2023-06-22T02:41:08;14.97;;;10.63;;
53203;SDS011;39086;54.424;18.456;2023-06-22T02:42:14;12.47;;;10.03;;
53203;SDS011;39086;54.424;18.456;2023-06-22T02:43:21;18.30;;;10.90;;
53203;SDS011;39086;54.424;18.456;2023-06-22T02:44:24;21.37;;;11.00;;
53203;SDS011;39086;54.424;18.456;2023-06-22T02:45:27;13.63;;;9.70;;
53203;SDS011;39086;54.424;18.456;2023-06-22T02:46:30;17.33;;;10.97;;
53203;SDS011;39086;54.424;18.456;2023-06-22T02:47:34;15.77;;;11.17;;
53203;SDS011;39086;54.424;18.456;2023-06-22T02:48:37;12.90;;;10.07;;
53203;SDS011;39086;54.424;18.456;2023-06-22T02:49:40;15.73;;;10.53;;
53203;SDS011;39086;54.424;18.456;2023-06-22T02:50:43;15.73;;;11.00;;
53203;SDS011;39086;54.424;18.456;2023-06-22T02:51:47;14.70;;;11.37;;
53203;SDS011;39086;54.424;18.456;2023-06-22T02:52:49;16.13;;;11.20;;
53203;SDS011;39086;54.424;18.456;2023-06-22T02:53:53;18.53;;;11.43;;
53203;SDS011;39086;54.424;18.456;2023-06-22T02:54:59;15.67;;;10.60;;
53203;SDS011;39086;54.424;18.456;2023-06-22T02:56:02;15.47;;;11.00;;
53203;SDS011;39086;54.424;18.456;2023-06-22T02:57:06;14.73;;;11.07;;
53203;SDS011;39086;54.424;18.456;2023-06-22T02:58:14;15.53;;;11.00;;
53203;SDS011;39086;54.424;18.456;2023-06-22T02:59:17;14.33;;;10.60;;
53203;SDS011;39086;54.424;18.456;2023-06-22T03:00:24;17.73;;;11.37;;
53203;SDS011;39086;54.424;18.456;2023-06-22T03:01:32;14.50;;;10.67;;
53203;SDS011;39086;54.424;18.456;2023-06-22T03:02:43;13.97;;;10.20;;
53203;SDS011;39086;54.424;18.456;2023-06-22T03:03:45;13.27;;;10.27;;
53203;SDS011;39086;54.424;18.456;2023-06-22T03:04:49;15.37;;;10.53;;
53203;SDS011;39086;54.424;18.456;2023-06-22T03:05:54;11.20;;;9.07;;
53203;SDS011;39086;54.424;18.456;2023-06-22T03:06:58;14.37;;;10.70;;
53203;SDS011;39086;54.424;18.456;2023-06-22T03:08:02;15.97;;;10.33;;
53203;SDS011;39086;54.424;18.456;2023-06-22T03:09:05;11.80;;;10.27;;
53203;SDS011;39086;54.424;18.456;2023-06-22T03:10:08;13.33;;;10.20;;
53203;SDS011;39086;54.424;18.456;2023-06-22T03:11:12;11.60;;;9.10;;
53203;SDS011;39086;54.424;18.456;2023-06-22T03:12:14;12.17;;;8.87;;
53203;SDS011;39086;54.424;18.456;2023-06-22T03:13:17;12.00;;;9.47;;
53203;SDS011;39086;54.424;18.456;2023-06-22T03:14:20;13.07;;;9.90;;
53203;SDS011;39086;54.424;18.456;2023-06-22T03:15:23;13.23;;;9.50;;
53203;SDS011;39086;54.424;18.456;2023-06-22T03:16:27;9.70;;;8.77;;
53203;SDS011;39086;54.424;18.456;2023-06-22T03:17:31;13.67;;;8.70;;
53203;SDS011;39086;54.424;18.456;2023-06-22T03:18:34;12.87;;;8.57;;
53203;SDS011;39086;54.424;18.456;2023-06-22T03:19:38;13.53;;;8.40;;
53203;SDS011;39086;54.424;18.456;2023-06-22T03:20:40;11.27;;;8.80;;
53203;SDS011;39086;54.424;18.456;2023-06-22T03:21:44;12.37;;;8.93;;
53203;SDS011;39086;54.424;18.456;2023-06-22T03:22:46;12.87;;;8.73;;
53203;SDS011;39086;54.424;18.456;2023-06-22T03:23:50;11.73;;;8.83;;
53203;SDS011;39086;54.424;18.456;2023-06-22T03:24:52;9.73;;;8.47;;
53203;SDS011;39086;54.424;18.456;2023-06-22T03:25:56;12.20;;;9.10;;
53203;SDS011;39086;54.424;18.456;2023-06-22T03:26:58;11.83;;;9.07;;
53203;SDS011;39086;54.424;18.456;2023-06-22T03:28:01;11.37;;;8.83;;
53203;SDS011;39086;54.424;18.456;2023-06-22T03:29:04;11.63;;;9.20;;
53203;SDS011;39086;54.424;18.456;2023-06-22T03:30:08;11.67;;;8.90;;
53203;SDS011;39086;54.424;18.456;2023-06-22T03:31:10;10.43;;;8.70;;
53203;SDS011;39086;54.424;18.456;2023-06-22T03:32:14;12.80;;;9.23;;
53203;SDS011;39086;54.424;18.456;2023-06-22T03:33:16;11.67;;;9.17;;
53203;SDS011;39086;54.424;18.456;2023-06-22T03:34:21;15.50;;;9.13;;
53203;SDS011;39086;54.424;18.456;2023-06-22T03:35:23;12.17;;;9.47;;
53203;SDS011;39086;54.424;18.456;2023-06-22T03:36:27;11.40;;;9.40;;
53203;SDS011;39086;54.424;18.456;2023-06-22T03:37:30;13.30;;;9.33;;
53203;SDS011;39086;54.424;18.456;2023-06-22T03:38:33;12.33;;;8.63;;
53203;SDS011;39086;54.424;18.456;2023-06-22T03:39:36;9.10;;;8.20;;
53203;SDS011;39086;54.424;18.456;2023-06-22T03:40:38;11.37;;;8.03;;
53203;SDS011;39086;54.424;18.456;2023-06-22T03:41:42;10.80;;;8.60;;
53203;SDS011;39086;54.424;18.456;2023-06-22T03:42:44;10.40;;;8.30;;
53203;SDS011;39086;54.424;18.456;2023-06-22T03:43:47;9.90;;;8.33;;
53203;SDS011;39086;54.424;18.456;2023-06-22T03:44:50;8.83;;;7.93;;
53203;SDS011;39086;54.424;18.456;2023-06-22T03:45:53;8.87;;;7.97;;
53203;SDS011;39086;54.424;18.456;2023-06-22T03:46:56;12.80;;;8.00;;
53203;SDS011;39086;54.424;18.456;2023-06-22T03:47:59;12.30;;;8.63;;
53203;SDS011;39086;54.424;18.456;2023-06-22T03:49:02;16.17;;;8.77;;
53203;SDS011;39086;54.424;18.456;2023-06-22T03:50:07;10.93;;;8.10;;
53203;SDS011;39086;54.424;18.456;2023-06-22T03:51:10;13.67;;;8.27;;
53203;SDS011;39086;54.424;18.456;2023-06-22T03:52:13;9.80;;;8.13;;
53203;SDS011;39086;54.424;18.456;2023-06-22T03:53:16;12.47;;;8.80;;
53203;SDS011;39086;54.424;18.456;2023-06-22T03:54:19;11.80;;;7.83;;
53203;SDS011;39086;54.424;18.456;2023-06-22T03:55:22;9.10;;;7.87;;
53203;SDS011;39086;54.424;18.456;2023-06-22T03:56:25;10.00;;;8.30;;
53203;SDS011;39086;54.424;18.456;2023-06-22T03:57:27;9.43;;;7.97;;
53203;SDS011;39086;54.424;18.456;2023-06-22T03:58:31;10.17;;;8.63;;
53203;SDS011;39086;54.424;18.456;2023-06-22T03:59:34;9.87;;;8.07;;
53203;SDS011;39086;54.424;18.456;2023-06-22T04:00:38;14.10;;;9.03;;
53203;SDS011;39086;54.424;18.456;2023-06-22T04:01:40;10.03;;;8.47;;
53203;SDS011;39086;54.424;18.456;2023-06-22T04:02:44;9.77;;;8.10;;
53203;SDS011;39086;54.424;18.456;2023-06-22T04:03:46;10.80;;;8.07;;
53203;SDS011;39086;54.424;18.456;2023-06-22T04:04:51;10.10;;;8.77;;
53203;SDS011;39086;54.424;18.456;2023-06-22T04:05:55;9.40;;;8.40;;
53203;SDS011;39086;54.424;18.456;2023-06-22T04:06:58;10.73;;;8.67;;
53203;SDS011;39086;54.424;18.456;2023-06-22T04:08:00;9.33;;;8.23;;
53203;SDS011;39086;54.424;18.456;2023-06-22T04:09:05;10.83;;;8.63;;
53203;SDS011;39086;54.424;18.456;2023-06-22T04:10:08;11.33;;;8.03;;
53203;SDS011;39086;54.424;18.456;2023-06-22T04:11:13;12.43;;;8.47;;
53203;SDS011;39086;54.424;18.456;2023-06-22T04:12:16;10.40;;;8.23;;
53203;SDS011;39086;54.424;18.456;2023-06-22T04:13:19;10.73;;;8.13;;
53203;SDS011;39086;54.424;18.456;2023-06-22T04:14:22;8.60;;;7.47;;
53203;SDS011;39086;54.424;18.456;2023-06-22T04:15:25;9.10;;;7.93;;
53203;SDS011;39086;54.424;18.456;2023-06-22T04:16:27;9.43;;;7.50;;
53203;SDS011;39086;54.424;18.456;2023-06-22T04:17:31;8.33;;;7.37;;
53203;SDS011;39086;54.424;18.456;2023-06-22T04:18:33;12.60;;;8.13;;
53203;SDS011;39086;54.424;18.456;2023-06-22T04:19:36;8.97;;;7.47;;
53203;SDS011;39086;54.424;18.456;2023-06-22T04:20:39;9.70;;;7.37;;
53203;SDS011;39086;54.424;18.456;2023-06-22T04:21:43;9.53;;;8.37;;
53203;SDS011;39086;54.424;18.456;2023-06-22T04:22:49;10.47;;;7.67;;
53203;SDS011;39086;54.424;18.456;2023-06-22T04:23:52;10.77;;;7.83;;
53203;SDS011;39086;54.424;18.456;2023-06-22T04:24:56;8.50;;;7.67;;
53203;SDS011;39086;54.424;18.456;2023-06-22T04:25:58;8.00;;;7.20;;
53203;SDS011;39086;54.424;18.456;2023-06-22T04:27:01;9.20;;;7.40;;
53203;SDS011;39086;54.424;18.456;2023-06-22T04:28:04;8.30;;;7.03;;
53203;SDS011;39086;54.424;18.456;2023-06-22T04:29:08;10.37;;;7.63;;
53203;SDS011;39086;54.424;18.456;2023-06-22T04:30:10;7.97;;;7.00;;
53203;SDS011;39086;54.424;18.456;2023-06-22T04:31:17;10.20;;;7.67;;
53203;SDS011;39086;54.424;18.456;2023-06-22T04:32:20;8.07;;;7.00;;
53203;SDS011;39086;54.424;18.456;2023-06-22T04:33:23;8.97;;;6.83;;
53203;SDS011;39086;54.424;18.456;2023-06-22T04:34:26;11.03;;;7.10;;
53203;SDS011;39086;54.424;18.456;2023-06-22T04:35:29;10.00;;;7.13;;
53203;SDS011;39086;54.424;18.456;2023-06-22T04:36:34;8.40;;;6.73;;
53203;SDS011;39086;54.424;18.456;2023-06-22T04:37:40;9.33;;;6.83;;
53203;SDS011;39086;54.424;18.456;2023-06-22T04:38:43;8.97;;;6.57;;
53203;SDS011;39086;54.424;18.456;2023-06-22T04:39:46;8.00;;;6.43;;
53203;SDS011;39086;54.424;18.456;2023-06-22T04:40:49;8.17;;;7.03;;
53203;SDS011;39086;54.424;18.456;2023-06-22T04:41:53;8.77;;;6.53;;
53203;SDS011;39086;54.424;18.456;2023-06-22T04:43:01;8.43;;;6.10;;
53203;SDS011;39086;54.424;18.456;2023-06-22T04:44:04;8.70;;;6.30;;
53203;SDS011;39086;54.424;18.456;2023-06-22T04:45:07;9.03;;;6.73;;
53203;SDS011;39086;54.424;18.456;2023-06-22T04:46:11;9.30;;;6.47;;
53203;SDS011;39086;54.424;18.456;2023-06-22T04:47:15;8.83;;;5.80;;
53203;SDS011;39086;54.424;18.456;2023-06-22T04:48:17;7.90;;;5.87;;
53203;SDS011;39086;54.424;18.456;2023-06-22T04:49:21;7.47;;;6.30;;
53203;SDS011;39086;54.424;18.456;2023-06-22T04:50:23;8.87;;;6.17;;
53203;SDS011;39086;54.424;18.456;2023-06-22T04:51:27;7.13;;;5.40;;
53203;SDS011;39086;54.424;18.456;2023-06-22T04:52:31;6.53;;;5.77;;
53203;SDS011;39086;54.424;18.456;2023-06-22T04:53:36;8.13;;;5.43;;
53203;SDS011;39086;54.424;18.456;2023-06-22T04:54:42;8.43;;;5.50;;
53203;SDS011;39086;54.424;18.456;2023-06-22T04:55:48;8.53;;;6.30;;
53203;SDS011;39086;54.424;18.456;2023-06-22T04:56:54;9.03;;;6.03;;
53203;SDS011;39086;54.424;18.456;2023-06-22T04:57:58;5.97;;;5.47;;
53203;SDS011;39086;54.424;18.456;2023-06-22T04:59:06;6.53;;;5.67;;
53203;SDS011;39086;54.424;18.456;2023-06-22T05:00:09;8.07;;;5.33;;
53203;SDS011;39086;54.424;18.456;2023-06-22T05:01:18;7.37;;;5.20;;
53203;SDS011;39086;54.424;18.456;2023-06-22T05:02:20;5.83;;;5.23;;
53203;SDS011;39086;54.424;18.456;2023-06-22T05:03:29;7.30;;;5.33;;
53203;SDS011;39086;54.424;18.456;2023-06-22T05:04:32;8.10;;;5.40;;
53203;SDS011;39086;54.424;18.456;2023-06-22T05:05:37;7.37;;;5.47;;
53203;SDS011;39086;54.424;18.456;2023-06-22T05:06:40;7.27;;;5.27;;
53203;SDS011;39086;54.424;18.456;2023-06-22T05:07:43;8.93;;;4.90;;
53203;SDS011;39086;54.424;18.456;2023-06-22T05:08:50;7.50;;;5.20;;
53203;SDS011;39086;54.424;18.456;2023-06-22T05:09:53;5.70;;;5.20;;
53203;SDS011;39086;54.424;18.456;2023-06-22T05:10:56;5.43;;;4.90;;
53203;SDS011;39086;54.424;18.456;2023-06-22T05:12:07;5.73;;;4.63;;
53203;SDS011;39086;54.424;18.456;2023-06-22T05:13:11;8.77;;;5.10;;
53203;SDS011;39086;54.424;18.456;2023-06-22T05:14:14;7.67;;;4.47;;
53203;SDS011;39086;54.424;18.456;2023-06-22T05:15:17;7.27;;;5.07;;
53203;SDS011;39086;54.424;18.456;2023-06-22T05:16:20;20.03;;;6.30;;
53203;SDS011;39086;54.424;18.456;2023-06-22T05:17:25;9.37;;;4.47;;
53203;SDS011;39086;54.424;18.456;2023-06-22T05:18:29;4.33;;;3.90;;
53203;SDS011;39086;54.424;18.456;2023-06-22T05:19:31;9.17;;;4.50;;
53203;SDS011;39086;54.424;18.456;2023-06-22T05:20:35;5.73;;;4.20;;
53203;SDS011;39086;54.424;18.456;2023-06-22T05:21:39;7.73;;;4.23;;
53203;SDS011;39086;54.424;18.456;2023-06-22T05:22:42;11.23;;;4.33;;
53203;SDS011;39086;54.424;18.456;2023-06-22T05:23:45;9.70;;;3.90;;
53203;SDS011;39086;54.424;18.456;2023-06-22T05:24:49;6.20;;;3.93;;
53203;SDS011;39086;54.424;18.456;2023-06-22T05:25:52;5.40;;;3.83;;
53203;SDS011;39086;54.424;18.456;2023-06-22T05:26:56;4.53;;;3.77;;
53203;SDS011;39086;54.424;18.456;2023-06-22T05:27:59;4.63;;;4.23;;
53203;SDS011;39086;54.424;18.456;2023-06-22T05:29:02;6.33;;;4.27;;
53203;SDS011;39086;54.424;18.456;2023-06-22T05:30:06;4.63;;;3.33;;
53203;SDS011;39086;54.424;18.456;2023-06-22T05:31:09;3.57;;;3.27;;
53203;SDS011;39086;54.424;18.456;2023-06-22T05:32:12;4.50;;;3.40;;
53203;SDS011;39086;54.424;18.456;2023-06-22T05:33:14;4.63;;;2.77;;
53203;SDS011;39086;54.424;18.456;2023-06-22T05:34:18;5.67;;;3.20;;
53203;SDS011;39086;54.424;18.456;2023-06-22T05:35:21;4.43;;;3.40;;
53203;SDS011;39086;54.424;18.456;2023-06-22T05:36:24;4.80;;;3.37;;
53203;SDS011;39086;54.424;18.456;2023-06-22T05:37:27;3.57;;;3.03;;
53203;SDS011;39086;54.424;18.456;2023-06-22T05:38:30;3.50;;;3.30;;
53203;SDS011;39086;54.424;18.456;2023-06-22T05:39:33;3.13;;;2.83;;
53203;SDS011;39086;54.424;18.456;2023-06-22T05:40:40;3.23;;;2.93;;
53203;SDS011;39086;54.424;18.456;2023-06-22T05:41:44;4.13;;;3.33;;
53203;SDS011;39086;54.424;18.456;2023-06-22T05:42:46;4.53;;;3.03;;
53203;SDS011;39086;54.424;18.456;2023-06-22T05:43:50;4.90;;;3.30;;
53203;SDS011;39086;54.424;18.456;2023-06-22T05:44:52;10.80;;;3.70;;
53203;SDS011;39086;54.424;18.456;2023-06-22T05:45:55;4.37;;;3.00;;
53203;SDS011;39086;54.424;18.456;2023-06-22T05:46:58;7.30;;;3.33;;
53203;SDS011;39086;54.424;18.456;2023-06-22T05:48:01;9.73;;;3.33;;
53203;SDS011;39086;54.424;18.456;2023-06-22T05:49:04;6.23;;;2.50;;
53203;SDS011;39086;54.424;18.456;2023-06-22T05:50:07;3.70;;;3.40;;
53203;SDS011;39086;54.424;18.456;2023-06-22T05:51:13;9.17;;;3.37;;
53203;SDS011;39086;54.424;18.456;2023-06-22T05:52:16;4.27;;;2.63;;
53203;SDS011;39086;54.424;18.456;2023-06-22T05:53:19;4.90;;;3.30;;
53203;SDS011;39086;54.424;18.456;2023-06-22T05:54:22;3.87;;;2.90;;
53203;SDS011;39086;54.424;18.456;2023-06-22T05:55:25;3.37;;;2.77;;
53203;SDS011;39086;54.424;18.456;2023-06-22T05:56:30;5.47;;;3.27;;
53203;SDS011;39086;54.424;18.456;2023-06-22T05:57:32;7.63;;;2.70;;
53203;SDS011;39086;54.424;18.456;2023-06-22T05:58:35;4.33;;;2.70;;
53203;SDS011;39086;54.424;18.456;2023-06-22T05:59:38;3.37;;;3.07;;
53203;SDS011;39086;54.424;18.456;2023-06-22T06:00:42;3.20;;;2.60;;
53203;SDS011;39086;54.424;18.456;2023-06-22T06:01:44;4.10;;;2.53;;
53203;SDS011;39086;54.424;18.456;2023-06-22T06:02:51;7.13;;;4.00;;
53203;SDS011;39086;54.424;18.456;2023-06-22T06:03:54;3.80;;;2.70;;
53203;SDS011;39086;54.424;18.456;2023-06-22T06:04:57;4.07;;;3.23;;
53203;SDS011;39086;54.424;18.456;2023-06-22T06:05:59;4.10;;;3.00;;
53203;SDS011;39086;54.424;18.456;2023-06-22T06:07:04;2.83;;;2.63;;
53203;SDS011;39086;54.424;18.456;2023-06-22T06:08:06;3.37;;;2.60;;
53203;SDS011;39086;54.424;18.456;2023-06-22T06:09:09;2.93;;;2.17;;
53203;SDS011;39086;54.424;18.456;2023-06-22T06:10:13;3.17;;;2.77;;
53203;SDS011;39086;54.424;18.456;2023-06-22T06:11:16;3.13;;;2.83;;
53203;SDS011;39086;54.424;18.456;2023-06-22T06:12:20;3.33;;;2.87;;
53203;SDS011;39086;54.424;18.456;2023-06-22T06:13:23;3.73;;;2.70;;
53203;SDS011;39086;54.424;18.456;2023-06-22T06:14:25;3.00;;;2.80;;
53203;SDS011;39086;54.424;18.456;2023-06-22T06:15:29;4.23;;;2.80;;
53203;SDS011;39086;54.424;18.456;2023-06-22T06:16:31;3.23;;;2.87;;